Terminal Aerodrome Forecast
Issued by NWS Louisville, KY

Home | Current Version | Previous Version | Text Only | Print | Product List | Glossary On
Versions: 1 2 3 4 5 6 7 8 9 10 11 12 13 14 15 16 17 18 19 20 21
000
FTUS43 KLMK 271300 AAA
TAFSDF
TAF AMD
KSDF 271324Z 2713/2818 02005KT 4SM BR OVC009
     FM271400 02005KT 5SM BR OVC013
     FM271700 02006KT P6SM OVC021
     FM271900 36007KT P6SM BKN040
     FM272200 VRB04KT P6SM SKC=

USA.gov is the U.S. government's official web portal to all federal, state and local government web resources and services.